Downstream station:
SHEF ID: GCSO2 Cave Springs Br nr South W C
STATION TYPE:
STAGE STAGE(2) RIV-FLOW BAT-LOAD
ft ft cfs volt
Ccp-Rev Ccp-Rev Ccp-Rev Ccp-Rev
(US/Central)
04/06 00:00 3.27 4.68 0 12.41
04/06 01:00 3.12 4.66 0 12.41
04/06 02:00 3.05 4.67 0 12.41
04/06 03:00 2.96 4.68 0 12.41
04/06 04:00 2.89 4.69 0 12.41
04/06 05:00 2.84 4.66 0 12.33
04/06 06:00 2.84 4.68 0 12.33
04/06 07:00 2.83 4.67 0 12.33
04/06 08:00 2.80 4.67 0 12.33
04/06 09:00 2.96 4.66 0 12.33
04/06 10:00 3.45 4.67 0 13.05
04/06 11:00 3.78 4.68 0 13.21
04/06 12:00 4.06 4.67 0 13.21
04/06 13:00 4.13 4.67 0 13.44
04/06 14:00 4.11 4.66 0 13.29
04/06 15:00 4.09 4.67 0 13.21
04/06 16:00 4.05 4.67 0 13.21
04/06 17:00 4.11 4.67 0 13.21
04/06 18:00 3.98 4.67 0 13.37
04/06 19:00 3.84 4.66 0 13.29
04/06 20:00 3.62 4.66 0 13.05
04/06 21:00 3.46 4.67 0 12.81
04/06 22:00 3.33 4.66 0 12.65
04/06 23:00 3.23 4.66 0 12.49